Timber — WDJ4251 — position and weather

sailwx.info

Track history (hours):
 
Tides and Currents Weather Stations Pressure Air Temp Water Temp Dewpoint Dewpoint Depression Visibility Wind Speed Wind Dir Waves Ship Positions

Timber

Owner: Knight, Pamela L, Bainbridge Island, WA. More information available from US FCC via Universal Licensing System and Coast Guard Vessel Documentation Center.

Last reported at 2017-Nov-18 20:52 UTC. Time now 2017-Dec-16 09:15 UTC.
Position N 48°34' W 122°54'.
Warning: this ship's position is 27 days out of date.

Length 12 m.

Type: Pleasure craft. MMSI: 367775880.

Date/timePositionNaut miles runAvg speedWind from/ knotsBaromVisibWave heightAir tempDewpointWater temp
2017-Nov-18 20:52N 48°34' W 122°54'2 3.7
2017-Nov-18 20:23N 48°33' W 122°55'1 2.5
2017-Nov-18 19:59N 48°33' W 122°57'4 0.2
2017-Nov-17 17:52N 48°28' W 122°57'2 5.0
2017-Nov-17 17:30N 48°30' W 122°57'2 4.2
2017-Nov-17 16:59N 48°32' W 122°58'2 0.1
2017-Nov-17 00:03N 48°32' W 123°01'1 0.5
2017-Nov-16 22:35N 48°33' W 122°60'1 3.0
2017-Nov-16 22:25N 48°33' W 122°59'2 4.1
2017-Nov-16 21:55N 48°33' W 122°56'42 1.5
2017-Nov-15 17:13N 47°54' W 122°30'1 6.2
2017-Nov-15 17:00N 47°53' W 122°30'  
Track history (hours):
 
Tides and Currents Weather Stations Pressure Air Temp Water Temp Dewpoint Dewpoint Depression Visibility Wind Speed Wind Dir Waves Ship Positions

Timber

Owner: Knight, Pamela L, Bainbridge Island, WA. More information available from US FCC via Universal Licensing System and Coast Guard Vessel Documentation Center.

Last reported at 2017-Nov-18 20:52 UTC. Time now 2017-Dec-16 09:15 UTC.
Position N 48°34' W 122°54'.
Warning: this ship's position is 27 days out of date.

Length 12 m.

Type: Pleasure craft. MMSI: 367775880.

Date/timePositionNaut miles runAvg speedWind from/ knotsBaromVisibWave heightAir tempDewpointWater temp
2017-Nov-18 20:52N 48°34' W 122°54'2 3.7
2017-Nov-18 20:23N 48°33' W 122°55'1 2.5
2017-Nov-18 19:59N 48°33' W 122°57'4 0.2
2017-Nov-17 17:52N 48°28' W 122°57'2 5.0
2017-Nov-17 17:30N 48°30' W 122°57'2 4.2
2017-Nov-17 16:59N 48°32' W 122°58'2 0.1
2017-Nov-17 00:03N 48°32' W 123°01'1 0.5
2017-Nov-16 22:35N 48°33' W 122°60'1 3.0
2017-Nov-16 22:25N 48°33' W 122°59'2 4.1
2017-Nov-16 21:55N 48°33' W 122°56'42 1.5
2017-Nov-15 17:13N 47°54' W 122°30'1 6.2
2017-Nov-15 17:00N 47°53' W 122°30'  

Dump ship's entire track history